ESMT/HAD METAR and TAF weather

Enter ICAO airport designator
Station Type Date Time Source
ESMT METAR 2020/11/28 19:50 UTC NOAA

ESMT 281950Z AUTO 07004KT 9999 OVC005/// 01/M00 Q1030


Station Type Date Time Source
ESMT Decoded METAR 2020/11/28 19:50 UTC NOAA

Halmstad Swedish Air Force Base , Sweden (ESMT) 56-41N 012-50E
Nov 28, 2020 - 02:50 PM EST / 2020.11.28 1950 UTC
Wind: from the ENE (070 degrees) at 5 MPH (4 KT):0
Visibility: greater than 7 mile(s):0
Sky conditions: overcast
Temperature: 33 F (1 C)
Windchill: 28 F (-2 C):1
Dew Point: 32 F (0 C)
Relative Humidity: 93%
Pressure (altimeter): 30.42 in. Hg (1030 hPa)
ob: ESMT 281950Z AUTO 07004KT 9999 OVC005/// 01/M00 Q1030
cycle: 20

Station Type Date Time Source
ESMT TAF 2020/11/01 07:40 UTC NOAA

TAF
AMD ESMT 010733Z 0107/0121 16010KT 9999 BKN012
TEMPO 0107/0109 2800 RADZ BR BKN003
BECMG 0109/0112 SCT012

Example: see airport list